KMHL

Details ICAO KMHL
Name MARSHALL MEM MUNI
Region United States
Timezone America/Chicago (UTC-6.0)
Plans Departing 1
Arriving 2
Stats Elevation 779 ft / 237 m (AMSL)
Location 39.095816° -93.203571°
Runways 2
Magnetic Variation 0.662° E
Sunrise 2017-12-14 13:25:43 UTC / 2017-12-14 07:25:43 Local
Sunset 2017-12-14 22:52:19 UTC / 2017-12-14 16:52:19 Local
Advertisement - Login to hide

Runways

ID Width Length Bearing (true) Bearing (mag) Surface Threshold Offset Overrun Length
09 150 ft / 46 m 3,525 ft / 1,075 m 95.04° 94.38° Dirt 0 ft / 0 m 0 ft / 0 m
18 75 ft / 23 m 4,710 ft / 1,436 m 181.00° 180.34° Asphalt 200 ft / 61 m 0 ft / 0 m
27 150 ft / 46 m 3,525 ft / 1,075 m 275.05° 274.39° Dirt 0 ft / 0 m 0 ft / 0 m
36 75 ft / 23 m 4,710 ft / 1,436 m 1.00° 0.34° Asphalt 0 ft / 0 m 0 ft / 0 m

Map

Weather


0- 5 10 15 20 25 30 35+ Temperature / ° C

Clouds and Precipitation
Forecast for 2017-12-15 06:00 UTC. Updated 2 hours ago

Ground ~20,000 ft ~40,000 ft Winds

METAR

KMHL 150255Z AUTO 00000KT 10SM SCT048 01/M02 A3014 RMK AO2

TAF

Not found

Frequencies

Recorded 118.67 MHz AWOS 3
Approach 127.45 MHz WHITEMAN APP
Unicom 122.80 MHz CTAF/UNICOM
Departure 125.92 MHz WHITEMAN DEP
Warning: Do not use this data for real-world aviation or navigation. No guarantee of current accuracy is given.